Quartz Hill, CA (93586)

8:39 PM PST on February 13, 2016 (GMT -0800)
North East Quartz Hill | | Change Station
CLOSE
Current Station
Personal Weather Station
Location: Lancaster, CA
Elevation: 2477 ft
Nearby Weather Stations

Elev 2477 ft 34.65 °N, 118.21 °W | Updated 1 minute ago

Clear
Clear
48.9 °F
Feels Like 49 °F
N
0.0
Wind Variable Wind from South

Today
High -- | Low -- °F
--% Chance of Precip.
Yesterday
High -- | Low -- °F
Precip. -- in
Pressure 30.18 in
Visibility 10.0 miles
Clouds Clear
Windchill 49 °F
Dew Point 36 °F
Humidity 62%
Rainfall 0.00 in
Snow Depth Not available.
6:40 AM 5:33 PM
Waxing Crescent, 37% visible
METAR KWJF 140356Z AUTO 29009KT 10SM CLR 12/03 A3016 RMK AO2 SLP220 T01220028 TSNO
Pressure 30.18 in
Visibility 10.0 miles
Clouds Clear
Windchill 49 °F
Dew Point 36 °F
Humidity 62%
Rainfall 0.00 in
Snow Depth Not available.
6:40 AM 5:33 PM
Waxing Crescent, 37% visible
METAR KWJF 140356Z AUTO 29009KT 10SM CLR 12/03 A3016 RMK AO2 SLP220 T01220028 TSNO

10-Day Weather Forecast

Almanac

Astronomy

Feb. 13, 2016 Rise Set
Actual Time
Civil Twilight
Nautical Twilight
Astronomical Twilight
Moon
Length of Visible Light
Length of Day
Tomorrow will be .
, % of the Moon is Illuminated

Today's Extremes

State Highs State Lows

Community

WunderPhotos

Upload Photos

1,892,746 photos uploaded!

WunderBlog® & News

Nearby

Air Quality

  Air Quality AQ Index Pollutant
Not available.

Snow Depth

Station Depth Elevation

Earthquake Activity

City Distance Mag. Time & Date
Minimum magnitude displayed is 2.5.

Coastal Water Temperatures

Place Temperature

Stations

Nearby Weather Stations

Station Location Temp. Windchill Dew Point Humidity Wind Precip. Elev Updated Type
                   

Watches & Warnings

There are currently no watches in effect.